Terminal Aerodrome Forecast
Issued by NWS

Home | Current Version | Previous Version | Text Only | Print | Product List | Glossary On
Versions: 1 2 3 4 5 6 7 8 9 10 11 12 13 14
000
FTUS44 KLZK 180500
TAFLIT
TAF
KLIT 180540Z 1806/1906 VRB02KT P6SM VCSH BKN100 BKN250
     FM181000 01004KT P6SM BKN100
     FM181400 04007KT P6SM SCT100
     FM181800 06009KT P6SM SCT050 SCT100
     FM190000 06004KT P6SM SCT250=

USA.gov is the U.S. government's official web portal to all federal, state and local government web resources and services.